createdAt,value
2019-02-21T00:00:59.708Z,16.62
2019-02-21T00:03:33.289Z,19.15
2019-02-21T00:06:05.127Z,15.25
2019-02-21T00:08:38.050Z,15.83
2019-02-21T00:11:11.151Z,15.50
2019-02-21T00:13:44.168Z,16.87
2019-02-21T00:16:17.230Z,15.65
2019-02-21T00:18:49.408Z,18.45
2019-02-21T00:21:22.908Z,17.00
2019-02-21T00:23:55.467Z,15.15
2019-02-21T00:26:27.811Z,16.50
2019-02-21T00:29:00.950Z,17.45
2019-02-21T00:31:34.108Z,14.35
2019-02-21T00:34:06.547Z,15.25
2019-02-21T00:36:39.149Z,16.45
2019-02-21T00:39:11.976Z,15.48
2019-02-21T00:41:44.728Z,14.60
2019-02-21T00:44:18.409Z,14.73
2019-02-21T00:46:51.711Z,11.88
2019-02-21T00:49:23.311Z,16.20
2019-02-21T00:51:56.410Z,13.08
2019-02-21T00:54:29.453Z,15.58
2019-02-21T00:57:02.828Z,13.58
2019-02-21T00:59:35.617Z,12.10
2019-02-21T01:02:08.030Z,11.95
2019-02-21T01:04:41.212Z,11.60
2019-02-21T01:07:14.371Z,17.35
2019-02-21T01:09:45.189Z,11.43
2019-02-21T01:12:18.469Z,12.25
2019-02-21T01:14:51.350Z,11.43
2019-02-21T01:17:23.494Z,11.97
2019-02-21T01:19:57.009Z,13.03
2019-02-21T01:22:29.372Z,14.30
2019-02-21T01:25:01.729Z,14.28
2019-02-21T01:27:33.488Z,14.23
2019-02-21T01:30:06.808Z,14.20
2019-02-21T01:32:38.688Z,14.53
2019-02-21T01:35:11.130Z,13.20
2019-02-21T01:37:44.290Z,13.22
2019-02-21T01:40:17.389Z,15.70
2019-02-21T01:42:49.569Z,15.50
2019-02-21T01:45:22.389Z,13.45
2019-02-21T01:47:55.412Z,13.28
2019-02-21T01:50:28.711Z,16.60
2019-02-21T01:53:02.589Z,14.18
2019-02-21T01:55:34.468Z,13.65
2019-02-21T01:58:07.007Z,14.80
2019-02-21T02:00:40.569Z,14.95
2019-02-21T02:03:12.609Z,13.55
2019-02-21T02:05:45.589Z,13.45
2019-02-21T02:08:18.571Z,13.62
2019-02-21T02:10:52.079Z,13.10
2019-02-21T02:13:25.509Z,12.82
2019-02-21T02:15:58.089Z,13.90
2019-02-21T02:18:30.708Z,13.53
2019-02-21T02:21:03.948Z,15.32
2019-02-21T02:23:37.309Z,12.78
2019-02-21T02:26:10.687Z,13.90
2019-02-21T02:28:42.951Z,12.63
2019-02-21T02:31:22.930Z,18.55
2019-02-21T02:33:49.209Z,21.48
2019-02-21T02:36:22.564Z,18.45
2019-02-21T02:38:55.631Z,18.05
2019-02-21T02:41:27.312Z,14.55
2019-02-21T02:43:59.768Z,17.23
2019-02-21T02:46:33.150Z,19.20
2019-02-21T02:49:05.007Z,22.82
2019-02-21T02:51:37.609Z,20.62
2019-02-21T02:54:10.313Z,23.00
2019-02-21T02:56:42.633Z,17.75
2019-02-21T02:59:14.990Z,16.17
2019-02-21T03:01:48.050Z,15.30
2019-02-21T03:04:20.300Z,14.20
2019-02-21T03:06:53.008Z,13.40
2019-02-21T03:09:25.768Z,10.23
2019-02-21T03:11:57.810Z,16.65
2019-02-21T03:14:30.770Z,17.42
2019-02-21T03:17:04.230Z,11.28
2019-02-21T03:19:37.889Z,9.35
2019-02-21T03:22:12.450Z,12.05
2019-02-21T03:24:45.069Z,10.15
2019-02-21T03:27:17.932Z,13.30
2019-02-21T03:29:50.751Z,11.28
2019-02-21T03:32:23.529Z,15.55
2019-02-21T03:34:56.212Z,9.45
2019-02-21T03:37:29.410Z,11.83
2019-02-21T03:40:02.073Z,10.30
2019-02-21T03:42:33.889Z,8.05
2019-02-21T03:45:07.708Z,11.75
2019-02-21T03:47:40.531Z,12.58
2019-02-21T03:50:13.437Z,9.85
2019-02-21T03:52:46.748Z,11.78
2019-02-21T03:55:19.580Z,8.70
2019-02-21T03:57:52.291Z,12.05
2019-02-21T04:00:25.020Z,12.68
2019-02-21T04:02:57.849Z,12.05
2019-02-21T04:05:28.829Z,11.55
2019-02-21T04:08:02.028Z,9.88
2019-02-21T04:10:35.069Z,10.75
2019-02-21T04:13:07.052Z,9.15
2019-02-21T04:15:39.768Z,14.78
2019-02-21T04:18:13.492Z,11.68
2019-02-21T04:20:47.029Z,13.15
2019-02-21T04:23:20.770Z,14.05
2019-02-21T04:25:53.128Z,12.53
2019-02-21T04:28:25.730Z,14.45
2019-02-21T04:30:58.968Z,11.73
2019-02-21T04:33:34.313Z,19.55
2019-02-21T04:36:06.748Z,11.90
2019-02-21T04:38:40.270Z,12.03
2019-02-21T04:41:13.148Z,9.78
2019-02-21T04:43:45.470Z,13.15
2019-02-21T04:46:18.611Z,9.85
2019-02-21T04:48:50.388Z,9.30
2019-02-21T04:51:22.851Z,26.10
2019-02-21T04:53:55.909Z,18.37
2019-02-21T04:56:28.389Z,8.73
2019-02-21T04:59:01.880Z,11.15
2019-02-21T05:01:33.631Z,11.90
2019-02-21T05:04:06.628Z,13.45
2019-02-21T05:06:39.709Z,10.30
2019-02-21T05:09:11.670Z,13.98
2019-02-21T05:11:44.927Z,11.38
2019-02-21T05:14:17.709Z,14.00
2019-02-21T05:16:51.589Z,13.90
2019-02-21T05:19:24.388Z,14.40
2019-02-21T05:21:56.587Z,14.47
2019-02-21T05:24:29.951Z,18.35
2019-02-21T05:27:13.715Z,39.38
2019-02-21T05:29:46.156Z,62.30
2019-02-21T05:32:41.044Z,20.02
2019-02-21T05:35:17.733Z,12.65
2019-02-21T05:38:02.830Z,11.38
2019-02-21T05:40:44.669Z,11.63
2019-02-21T05:43:37.255Z,19.60
2019-02-21T05:46:27.490Z,28.23
2019-02-21T05:49:18.429Z,11.10
2019-02-21T05:51:56.108Z,18.65
2019-02-21T05:54:49.948Z,16.12
2019-02-21T05:57:41.370Z,19.17
2019-02-21T06:00:32.488Z,13.53
2019-02-21T06:03:38.851Z,16.95
2019-02-21T06:06:44.970Z,15.38
2019-02-21T06:09:40.849Z,16.52
2019-02-21T06:12:33.230Z,13.20
2019-02-21T06:15:21.095Z,15.20
2019-02-21T06:18:12.070Z,17.02
2019-02-21T06:20:57.886Z,16.25
2019-02-21T06:23:55.649Z,17.12
2019-02-21T06:26:36.149Z,20.65
2019-02-21T06:29:16.449Z,18.27
2019-02-21T06:31:49.328Z,16.10
2019-02-21T06:34:22.848Z,21.52
2019-02-21T06:36:55.411Z,36.17
2019-02-21T06:39:27.752Z,15.78
2019-02-21T06:42:01.731Z,27.50
2019-02-21T06:44:34.649Z,18.00
2019-02-21T06:47:08.031Z,19.82
2019-02-21T06:49:40.050Z,22.02
2019-02-21T06:52:12.588Z,15.30
2019-02-21T06:54:44.750Z,21.52
2019-02-21T06:57:17.771Z,28.60
2019-02-21T06:59:50.673Z,21.75
2019-02-21T07:02:23.651Z,18.52
2019-02-21T07:04:56.880Z,22.27
2019-02-21T07:07:29.416Z,15.13
2019-02-21T07:10:02.530Z,18.10
2019-02-21T07:12:35.429Z,20.97
2019-02-21T07:15:07.815Z,24.52
2019-02-21T07:17:48.861Z,16.42
2019-02-21T07:20:15.691Z,104.53
2019-02-21T07:22:47.772Z,30.48
2019-02-21T07:25:54.071Z,19.77
2019-02-21T07:28:27.847Z,14.20
2019-02-21T07:31:00.649Z,18.12
2019-02-21T07:33:33.428Z,17.85
2019-02-21T07:36:05.912Z,18.77
2019-02-21T07:38:38.331Z,14.07
2019-02-21T07:41:11.213Z,20.43
2019-02-21T07:43:45.232Z,19.05
2019-02-21T07:46:17.490Z,14.63
2019-02-21T07:48:49.572Z,14.20
2019-02-21T07:51:22.616Z,16.20
2019-02-21T07:53:55.769Z,18.50
2019-02-21T07:56:28.831Z,16.52
2019-02-21T07:59:01.151Z,17.02
2019-02-21T08:01:33.730Z,15.45
2019-02-21T08:04:06.831Z,20.43
2019-02-21T08:06:38.948Z,26.20
2019-02-21T08:09:12.139Z,11.15
2019-02-21T08:11:45.090Z,11.35
2019-02-21T08:14:17.571Z,24.95
2019-02-21T08:16:50.109Z,12.47
2019-02-21T08:19:22.769Z,31.45
2019-02-21T08:21:54.850Z,37.83
2019-02-21T08:24:27.528Z,16.27
2019-02-21T08:27:00.309Z,12.55
2019-02-21T08:29:33.351Z,15.78
2019-02-21T08:32:06.250Z,15.85
2019-02-21T08:34:48.326Z,16.77
2019-02-21T08:37:19.978Z,12.05
2019-02-21T08:39:52.649Z,24.23
2019-02-21T08:42:25.037Z,22.40
2019-02-21T08:44:57.630Z,69.58
2019-02-21T08:47:29.969Z,27.20
2019-02-21T08:50:03.237Z,25.97
2019-02-21T08:52:35.811Z,20.52
2019-02-21T08:55:08.750Z,30.40
2019-02-21T08:57:41.450Z,27.27
2019-02-21T09:00:14.375Z,18.95
2019-02-21T09:02:46.902Z,50.80
2019-02-21T09:05:19.670Z,22.25
2019-02-21T09:07:51.510Z,53.85
2019-02-21T09:10:23.771Z,30.55
2019-02-21T09:12:55.670Z,35.05
2019-02-21T09:15:28.491Z,19.80
2019-02-21T09:18:01.310Z,56.28
2019-02-21T09:20:33.750Z,23.60
2019-02-21T09:23:06.850Z,36.83
2019-02-21T09:25:39.809Z,26.62
2019-02-21T09:28:15.505Z,19.45
2019-02-21T09:30:47.229Z,16.82
2019-02-21T09:33:21.342Z,14.23
2019-02-21T09:35:56.549Z,16.77
2019-02-21T09:38:28.495Z,18.00
2019-02-21T09:41:00.633Z,12.35
2019-02-21T09:43:33.049Z,8.48
2019-02-21T09:46:06.049Z,19.90
2019-02-21T09:48:38.130Z,20.23
2019-02-21T09:51:10.112Z,15.88
2019-02-21T09:53:42.518Z,43.28
2019-02-21T09:56:14.086Z,15.50
2019-02-21T09:58:46.363Z,29.32
2019-02-21T10:01:19.003Z,26.95
2019-02-21T10:03:51.264Z,45.88
2019-02-21T10:06:23.724Z,33.00
2019-02-21T10:08:56.187Z,26.60
2019-02-21T10:11:27.716Z,31.20
2019-02-21T10:14:00.253Z,30.08
2019-02-21T10:16:32.533Z,29.55
2019-02-21T10:19:05.273Z,30.82
2019-02-21T10:21:38.592Z,35.83
2019-02-21T10:24:11.374Z,42.20
2019-02-21T10:26:44.494Z,29.77
2019-02-21T10:29:18.292Z,45.03
2019-02-21T10:31:51.089Z,44.48
2019-02-21T10:34:23.729Z,31.30
2019-02-21T10:36:56.126Z,35.50
2019-02-21T10:39:29.211Z,33.85
2019-02-21T10:42:01.729Z,25.43
2019-02-21T10:44:33.508Z,35.92
2019-02-21T10:47:05.888Z,30.57
2019-02-21T10:49:38.920Z,35.33
2019-02-21T10:52:10.995Z,32.93
2019-02-21T10:54:43.052Z,29.80
2019-02-21T10:57:14.955Z,35.58
2019-02-21T10:59:47.201Z,31.75
2019-02-21T11:02:20.032Z,35.13
2019-02-21T11:04:55.031Z,40.55
2019-02-21T11:07:26.672Z,29.87
2019-02-21T11:09:59.553Z,29.30
2019-02-21T11:12:32.352Z,24.95
2019-02-21T11:15:04.733Z,36.42
2019-02-21T11:17:37.991Z,36.15
2019-02-21T11:20:12.612Z,23.92
2019-02-21T11:22:45.932Z,28.12
2019-02-21T11:25:18.594Z,24.55
2019-02-21T11:27:51.452Z,26.02
2019-02-21T11:30:24.182Z,30.35
2019-02-21T11:32:57.011Z,27.48
2019-02-21T11:35:29.413Z,26.55
2019-02-21T11:38:01.915Z,28.67
2019-02-21T11:40:45.093Z,28.95
2019-02-21T11:43:13.574Z,24.98
2019-02-21T11:45:55.072Z,27.75
2019-02-21T11:48:20.011Z,23.40
2019-02-21T11:50:51.545Z,34.27
2019-02-21T11:53:23.348Z,43.73
2019-02-21T11:55:54.909Z,29.02
2019-02-21T11:58:27.986Z,34.98
2019-02-21T12:00:59.833Z,28.85
2019-02-21T12:03:31.865Z,31.40
2019-02-21T12:06:06.182Z,40.20
2019-02-21T12:08:38.295Z,31.35
2019-02-21T12:11:10.094Z,32.93
2019-02-21T12:13:42.697Z,36.35
2019-02-21T12:16:14.262Z,30.52
2019-02-21T12:18:46.318Z,32.38
2019-02-21T12:21:17.882Z,35.88
2019-02-21T12:23:49.154Z,30.12
2019-02-21T12:26:23.387Z,33.70
2019-02-21T12:28:56.297Z,30.72
2019-02-21T12:31:29.112Z,37.93
2019-02-21T12:34:01.074Z,46.63
2019-02-21T12:36:33.755Z,38.42
2019-02-21T12:39:06.913Z,37.17
2019-02-21T12:41:39.237Z,27.85
2019-02-21T12:44:12.374Z,36.55
2019-02-21T12:46:45.689Z,40.00
2019-02-21T12:49:18.514Z,39.13
2019-02-21T12:51:51.053Z,36.05
2019-02-21T12:54:24.784Z,43.23
2019-02-21T12:56:57.775Z,38.98
2019-02-21T12:59:29.795Z,36.28
2019-02-21T13:02:02.514Z,43.10
2019-02-21T13:04:35.458Z,45.15
2019-02-21T13:07:08.593Z,37.10
2019-02-21T13:09:40.733Z,43.63
2019-02-21T13:12:13.915Z,32.03
2019-02-21T13:14:47.393Z,37.65
2019-02-21T13:17:20.474Z,51.48
2019-02-21T13:19:52.675Z,39.85
2019-02-21T13:22:25.192Z,36.65
2019-02-21T13:24:59.615Z,36.38
2019-02-21T13:27:32.336Z,43.35
2019-02-21T13:30:05.737Z,36.75
2019-02-21T13:32:37.134Z,55.30
2019-02-21T13:35:10.053Z,55.92
2019-02-21T13:37:42.594Z,39.53
2019-02-21T13:40:15.536Z,38.30
2019-02-21T13:42:48.379Z,36.88
2019-02-21T13:45:21.493Z,43.08
2019-02-21T13:47:53.721Z,42.48
2019-02-21T13:50:26.759Z,45.98
2019-02-21T13:52:59.180Z,70.85
2019-02-21T13:55:32.785Z,33.10
2019-02-21T13:58:05.319Z,35.23
2019-02-21T14:00:37.379Z,31.15
2019-02-21T14:03:10.500Z,38.17
2019-02-21T14:05:43.020Z,34.08
2019-02-21T14:08:15.559Z,34.45
2019-02-21T14:10:48.679Z,33.25
2019-02-21T14:13:20.447Z,30.30
2019-02-21T14:15:53.358Z,40.90
2019-02-21T14:18:26.159Z,41.95
2019-02-21T14:20:59.279Z,35.15
2019-02-21T14:23:32.039Z,54.75
2019-02-21T14:26:04.899Z,37.40
2019-02-21T14:28:38.062Z,33.92
2019-02-21T14:31:11.081Z,31.35
2019-02-21T14:33:43.898Z,39.38
2019-02-21T14:36:19.073Z,34.73
2019-02-21T14:38:50.102Z,39.25
2019-02-21T14:41:22.860Z,31.85
2019-02-21T14:43:55.779Z,34.80
2019-02-21T14:46:28.235Z,36.13
2019-02-21T14:48:59.633Z,42.60
2019-02-21T14:51:32.261Z,41.80
2019-02-21T14:54:05.346Z,52.75
2019-02-21T14:56:41.093Z,38.05
2019-02-21T14:59:13.974Z,43.55
2019-02-21T15:01:47.453Z,37.83
2019-02-21T15:04:19.733Z,33.13
2019-02-21T15:06:52.553Z,41.65
2019-02-21T15:09:25.272Z,33.33
2019-02-21T15:11:57.972Z,33.83
2019-02-21T15:14:31.033Z,42.67
2019-02-21T15:17:03.958Z,41.48
2019-02-21T15:19:36.716Z,41.33
2019-02-21T15:22:09.015Z,38.38
2019-02-21T15:24:41.732Z,48.28
2019-02-21T15:27:14.209Z,36.08
2019-02-21T15:29:47.268Z,44.90
2019-02-21T15:32:19.588Z,28.80
2019-02-21T15:34:52.548Z,32.28
2019-02-21T15:37:26.045Z,36.08
2019-02-21T15:39:59.146Z,31.82
2019-02-21T15:42:31.443Z,35.85
2019-02-21T15:45:03.647Z,30.88
2019-02-21T15:47:35.827Z,31.25
2019-02-21T15:50:10.272Z,37.48
2019-02-21T15:52:43.019Z,35.55
2019-02-21T15:55:16.194Z,38.30
2019-02-21T15:57:48.671Z,39.42
2019-02-21T16:00:21.807Z,38.15
2019-02-21T16:02:54.607Z,54.35
2019-02-21T16:05:26.850Z,32.80
2019-02-21T16:07:59.017Z,43.98
2019-02-21T16:10:30.963Z,34.25
2019-02-21T16:13:05.020Z,69.82
2019-02-21T16:15:37.818Z,41.80
2019-02-21T16:18:09.817Z,38.42
2019-02-21T16:20:41.621Z,39.78
2019-02-21T16:23:14.446Z,32.90
2019-02-21T16:25:47.258Z,36.63
2019-02-21T16:28:19.896Z,40.60
2019-02-21T16:30:52.155Z,44.80
2019-02-21T16:33:25.635Z,47.43
2019-02-21T16:35:58.879Z,32.03
2019-02-21T16:38:31.115Z,32.50
2019-02-21T16:41:03.797Z,34.78
2019-02-21T16:43:36.995Z,35.68
2019-02-21T16:46:11.015Z,38.73
2019-02-21T16:48:44.075Z,36.08
2019-02-21T16:51:16.738Z,40.20
2019-02-21T16:53:49.283Z,11.15
2019-02-21T16:56:22.059Z,15.95
2019-02-21T16:58:54.057Z,13.40
2019-02-21T17:01:26.204Z,12.20
2019-02-21T17:03:59.221Z,22.48
2019-02-21T17:06:31.715Z,26.97
2019-02-21T17:09:05.375Z,10.48
2019-02-21T17:11:38.159Z,11.57
2019-02-21T17:14:11.179Z,13.65
2019-02-21T17:16:43.696Z,16.30
2019-02-21T17:19:15.838Z,13.22
2019-02-21T17:21:49.075Z,14.63
2019-02-21T17:24:22.395Z,11.50
2019-02-21T17:26:55.535Z,83.70
2019-02-21T17:29:28.197Z,39.42
2019-02-21T17:32:00.615Z,16.82
2019-02-21T17:34:33.335Z,19.35
2019-02-21T17:37:05.618Z,16.25
2019-02-21T17:39:38.318Z,21.40
2019-02-21T17:42:11.196Z,20.72
2019-02-21T17:44:44.352Z,34.60
2019-02-21T17:47:16.777Z,24.70
2019-02-21T17:49:49.478Z,26.05
2019-02-21T17:52:21.876Z,20.62
2019-02-21T17:54:54.919Z,26.10
2019-02-21T17:57:27.115Z,32.35
2019-02-21T18:00:00.455Z,19.17
2019-02-21T18:02:33.477Z,24.45
2019-02-21T18:05:07.221Z,22.70
2019-02-21T18:07:40.777Z,16.48
2019-02-21T18:10:15.151Z,19.52
2019-02-21T18:12:48.095Z,24.90
2019-02-21T18:15:21.256Z,20.62
2019-02-21T18:17:53.636Z,15.23
2019-02-21T18:20:26.195Z,16.67
2019-02-21T18:22:58.416Z,28.60
2019-02-21T18:25:36.535Z,20.95
2019-02-21T18:28:09.454Z,17.75
2019-02-21T18:30:42.796Z,19.25
2019-02-21T18:33:15.734Z,31.97
2019-02-21T18:35:48.598Z,23.87
2019-02-21T18:38:21.594Z,27.48
2019-02-21T18:40:55.137Z,17.30
2019-02-21T18:43:27.454Z,32.30
2019-02-21T18:45:59.717Z,21.68
2019-02-21T18:48:32.356Z,28.62
2019-02-21T18:51:04.895Z,29.00
2019-02-21T18:53:37.756Z,27.50
2019-02-21T18:56:10.936Z,28.77
2019-02-21T18:58:43.717Z,30.92
2019-02-21T19:01:15.956Z,28.50
2019-02-21T19:03:48.455Z,35.10
2019-02-21T19:06:21.636Z,28.65
2019-02-21T19:08:55.017Z,24.85
2019-02-21T19:11:28.677Z,35.88
2019-02-21T19:14:01.161Z,32.45
2019-02-21T19:16:33.935Z,28.57
2019-02-21T19:19:06.894Z,25.75
2019-02-21T19:21:40.135Z,35.33
2019-02-21T19:24:13.597Z,30.12
2019-02-21T19:26:45.735Z,32.08
2019-02-21T19:29:18.815Z,30.70
2019-02-21T19:31:52.296Z,28.07
2019-02-21T19:34:25.456Z,26.90
2019-02-21T19:36:57.995Z,26.87
2019-02-21T19:39:31.135Z,32.42
2019-02-21T19:42:03.675Z,26.65
2019-02-21T19:44:36.223Z,22.82
2019-02-21T19:47:08.615Z,18.07
2019-02-21T19:49:41.137Z,19.45
2019-02-21T19:52:14.436Z,27.30
2019-02-21T19:54:46.493Z,21.20
2019-02-21T19:57:19.115Z,35.13
2019-02-21T19:59:52.200Z,40.52
2019-02-21T20:02:25.554Z,22.98
2019-02-21T20:04:57.837Z,24.25
2019-02-21T20:07:30.936Z,24.47
2019-02-21T20:10:04.696Z,19.67
2019-02-21T20:12:37.563Z,33.10
2019-02-21T20:15:10.996Z,18.90
2019-02-21T20:17:44.686Z,26.20
2019-02-21T20:20:19.099Z,14.58
2019-02-21T20:22:51.856Z,23.57
2019-02-21T20:25:25.416Z,23.05
2019-02-21T20:27:57.696Z,14.58
2019-02-21T20:30:30.555Z,19.77
2019-02-21T20:33:03.395Z,22.07
2019-02-21T20:35:36.495Z,18.12
2019-02-21T20:38:08.795Z,17.60
2019-02-21T20:40:41.896Z,15.18
2019-02-21T20:43:14.223Z,16.23
2019-02-21T20:45:52.920Z,18.85
2019-02-21T20:48:20.895Z,23.60
2019-02-21T20:50:56.865Z,21.70
2019-02-21T20:53:27.103Z,22.87
2019-02-21T20:55:59.987Z,21.27
2019-02-21T20:58:32.538Z,19.17
2019-02-21T21:01:07.196Z,15.32
2019-02-21T21:03:40.035Z,16.62
2019-02-21T21:06:12.276Z,21.87
2019-02-21T21:08:46.566Z,20.12
2019-02-21T21:11:18.056Z,18.77
2019-02-21T21:13:50.696Z,19.25
2019-02-21T21:16:24.116Z,24.10
2019-02-21T21:18:56.940Z,18.90
2019-02-21T21:21:29.015Z,22.42
2019-02-21T21:24:02.237Z,23.67
2019-02-21T21:26:34.675Z,25.95
2019-02-21T21:29:08.017Z,21.68
2019-02-21T21:31:40.295Z,25.43
2019-02-21T21:34:13.234Z,18.25
2019-02-21T21:36:46.056Z,17.45
2019-02-21T21:39:18.656Z,16.07
2019-02-21T21:41:51.406Z,18.35
2019-02-21T21:44:24.255Z,16.65
2019-02-21T21:46:56.820Z,12.53
2019-02-21T21:49:29.575Z,18.20
2019-02-21T21:52:02.098Z,22.15
2019-02-21T21:54:35.238Z,19.25
2019-02-21T21:57:07.495Z,13.80
2019-02-21T21:59:39.936Z,16.07
2019-02-21T22:02:12.815Z,11.88
2019-02-21T22:04:45.395Z,14.78
2019-02-21T22:07:18.456Z,11.15
2019-02-21T22:09:51.175Z,12.40
2019-02-21T22:12:24.418Z,14.10
2019-02-21T22:14:57.494Z,16.45
2019-02-21T22:17:30.015Z,12.93
2019-02-21T22:20:02.971Z,12.47
2019-02-21T22:22:35.499Z,14.68
2019-02-21T22:25:08.535Z,15.68
2019-02-21T22:27:40.756Z,19.50
2019-02-21T22:30:15.015Z,13.20
2019-02-21T22:32:48.023Z,10.48
2019-02-21T22:35:19.937Z,21.48
2019-02-21T22:37:52.995Z,17.67
2019-02-21T22:40:25.177Z,19.02
2019-02-21T22:42:57.516Z,22.87
2019-02-21T22:45:29.634Z,15.00
2019-02-21T22:48:02.435Z,15.45
2019-02-21T22:50:35.635Z,8.65
2019-02-21T22:53:08.615Z,15.13
2019-02-21T22:55:42.775Z,15.23
2019-02-21T22:58:15.655Z,13.83
2019-02-21T23:01:18.115Z,13.20
2019-02-21T23:03:53.795Z,17.52
2019-02-21T23:06:57.395Z,13.22
2019-02-21T23:09:29.517Z,16.20
2019-02-21T23:12:02.616Z,15.32
2019-02-21T23:14:36.297Z,19.75
2019-02-21T23:17:08.715Z,18.92
2019-02-21T23:19:42.822Z,10.88
2019-02-21T23:22:15.121Z,17.90
2019-02-21T23:24:47.223Z,12.15
2019-02-21T23:27:20.823Z,12.37
2019-02-21T23:29:53.382Z,15.03
2019-02-21T23:32:26.122Z,14.70
2019-02-21T23:35:00.316Z,18.20
2019-02-21T23:37:32.763Z,16.67
2019-02-21T23:40:06.084Z,16.27
2019-02-21T23:42:39.204Z,15.23
2019-02-21T23:45:12.465Z,14.05
2019-02-21T23:47:49.757Z,12.90
2019-02-21T23:50:19.126Z,19.10
2019-02-21T23:52:50.981Z,18.27
2019-02-21T23:55:23.802Z,24.57
2019-02-21T23:57:56.882Z,25.57
